Auburn, Pennsylvania
Current Conditions -  °F | °C
As of 7:54 AM on Thursday 27 Nov 2014 (Local Time) from KRDG Reporting Station
Overcast Overcast  
Wind Chill: 30°   Ceiling: 8000
Heat Index: 34°   Visibility: 10mi
Dew Point: 29°   Wind: 5mph
Humidity: 82%   Direction: 280°W
Pressure: 30"   Gusts: NA
Location:  40.6°N, 76.09°W
Report Text: KRDG 271254Z 28004KT 10SM OVC080 01/M02 A3000 RMK AO2 SLP167 T00111017
Loading
Personal Weather Stations






























Interactive Weather Map New forecast layout! Learn more

10-Day Weather Forecast

Advertisements
Track Severe Weather on mobile